createdAt,value
2018-05-15T00:01:38.946Z,14.60
2018-05-15T00:04:06.519Z,14.50
2018-05-15T00:06:34.100Z,14.60
2018-05-15T00:09:01.661Z,14.60
2018-05-15T00:11:29.241Z,14.60
2018-05-15T00:13:56.803Z,14.50
2018-05-15T00:16:24.396Z,14.60
2018-05-15T00:18:52.717Z,14.50
2018-05-15T00:21:20.297Z,14.40
2018-05-15T00:23:47.857Z,14.50
2018-05-15T00:26:15.447Z,14.50
2018-05-15T00:28:43.773Z,14.60
2018-05-15T00:31:11.359Z,14.60
2018-05-15T00:33:38.913Z,14.60
2018-05-15T00:36:06.498Z,14.70
2018-05-15T00:38:34.838Z,14.60
2018-05-15T00:41:03.200Z,14.60
2018-05-15T00:43:30.757Z,14.60
2018-05-15T00:45:58.337Z,14.60
2018-05-15T00:48:25.893Z,14.60
2018-05-15T00:50:54.242Z,14.60
2018-05-15T00:53:21.799Z,14.60
2018-05-15T00:55:49.361Z,14.60
2018-05-15T00:58:16.949Z,14.50
2018-05-15T01:00:44.509Z,14.50
2018-05-15T01:03:12.093Z,14.60
2018-05-15T01:05:39.654Z,14.60
2018-05-15T01:08:07.237Z,14.60
2018-05-15T01:10:35.568Z,14.60
2018-05-15T01:13:03.290Z,14.50
2018-05-15T01:15:30.854Z,14.60
2018-05-15T01:17:58.438Z,14.50
2018-05-15T01:20:25.994Z,14.40
2018-05-15T01:22:53.784Z,14.50
2018-05-15T01:25:21.346Z,14.60
2018-05-15T01:27:48.931Z,14.60
2018-05-15T01:30:16.491Z,14.60
2018-05-15T01:32:44.846Z,14.70
2018-05-15T01:35:12.402Z,14.60
2018-05-15T01:37:39.984Z,14.80
2018-05-15T01:40:08.310Z,14.70
2018-05-15T01:42:35.890Z,14.70
2018-05-15T01:45:03.445Z,14.80
2018-05-15T01:47:31.026Z,14.70
2018-05-15T01:49:58.581Z,14.70
2018-05-15T01:52:26.163Z,14.70
2018-05-15T01:54:54.482Z,14.70
2018-05-15T01:57:22.068Z,14.70
2018-05-15T01:59:49.626Z,14.70
2018-05-15T02:02:17.202Z,14.70
2018-05-15T02:04:45.529Z,14.70
2018-05-15T02:07:13.109Z,14.70
2018-05-15T02:09:40.669Z,14.50
2018-05-15T02:12:08.249Z,14.50
2018-05-15T02:14:35.805Z,14.60
2018-05-15T02:17:03.386Z,14.60
2018-05-15T02:19:31.709Z,14.60
2018-05-15T02:21:59.300Z,14.60
2018-05-15T02:24:26.863Z,14.60
2018-05-15T02:26:55.186Z,14.70
2018-05-15T02:29:22.777Z,14.70
2018-05-15T02:31:50.338Z,14.70
2018-05-15T02:34:17.916Z,14.70
2018-05-15T02:36:45.479Z,14.70
2018-05-15T02:39:13.825Z,14.80
2018-05-15T02:41:41.387Z,14.80
2018-05-15T02:44:08.971Z,14.70
2018-05-15T02:46:37.301Z,14.60
2018-05-15T02:49:04.883Z,14.60
2018-05-15T02:51:32.441Z,14.60
2018-05-15T02:54:00.054Z,14.60
2018-05-15T02:56:27.616Z,14.60
2018-05-15T02:58:55.193Z,14.60
2018-05-15T03:01:22.750Z,14.60
2018-05-15T03:03:50.332Z,14.70
2018-05-15T03:06:17.890Z,14.70
2018-05-15T03:08:45.470Z,14.60
2018-05-15T03:11:13.041Z,14.60
2018-05-15T03:13:41.394Z,14.70
2018-05-15T03:16:08.954Z,14.70
2018-05-15T03:18:36.537Z,14.70
2018-05-15T03:21:04.859Z,14.70
2018-05-15T03:23:32.447Z,14.80
2018-05-15T03:26:00.007Z,14.80
2018-05-15T03:28:27.594Z,14.70
2018-05-15T03:30:55.913Z,14.70
2018-05-15T03:33:23.493Z,14.60
2018-05-15T03:35:51.101Z,14.70
2018-05-15T03:38:18.678Z,14.70
2018-05-15T03:40:46.237Z,14.70
2018-05-15T03:43:13.822Z,14.70
2018-05-15T03:45:41.381Z,14.70
2018-05-15T03:48:08.965Z,14.80
2018-05-15T03:50:36.526Z,14.80
2018-05-15T03:53:04.109Z,14.80
2018-05-15T03:55:31.665Z,14.90
2018-05-15T03:57:59.261Z,14.70
2018-05-15T04:00:38.629Z,14.70
2018-05-15T04:03:17.946Z,14.70
2018-05-15T04:05:57.267Z,14.60
2018-05-15T04:08:25.029Z,14.60
2018-05-15T04:10:52.607Z,14.60
2018-05-15T04:13:20.192Z,14.70
2018-05-15T04:15:47.758Z,14.70
2018-05-15T04:18:15.346Z,14.70
2018-05-15T04:20:42.933Z,14.70
2018-05-15T04:23:11.262Z,14.80
2018-05-15T04:25:39.614Z,14.70
2018-05-15T04:28:07.273Z,14.70
2018-05-15T04:30:34.773Z,14.70
2018-05-15T04:33:02.332Z,14.70
2018-05-15T04:35:29.915Z,14.70
2018-05-15T04:37:57.473Z,14.80
2018-05-15T04:40:25.057Z,14.80
2018-05-15T04:42:52.633Z,14.80
2018-05-15T04:45:20.212Z,14.70
2018-05-15T04:47:48.538Z,14.70
2018-05-15T04:50:16.120Z,14.70
2018-05-15T04:52:43.851Z,14.80
2018-05-15T04:55:11.461Z,14.80
2018-05-15T04:57:39.023Z,14.80
2018-05-15T05:00:07.373Z,14.70
2018-05-15T05:02:34.938Z,14.70
2018-05-15T05:05:02.513Z,14.60
2018-05-15T05:07:30.074Z,14.60
2018-05-15T05:09:57.659Z,14.70
2018-05-15T05:12:25.222Z,14.80
2018-05-15T05:14:52.952Z,14.80
2018-05-15T05:17:20.509Z,14.70
2018-05-15T05:19:48.102Z,14.60
2018-05-15T05:22:15.659Z,14.60
2018-05-15T05:24:43.269Z,14.60
2018-05-15T05:27:10.892Z,14.60
2018-05-15T05:29:38.461Z,14.70
2018-05-15T05:32:06.018Z,14.70
2018-05-15T05:34:33.604Z,14.80
2018-05-15T05:37:01.162Z,15.00
2018-05-15T05:39:28.752Z,15.00
2018-05-15T05:41:56.309Z,15.10
2018-05-15T05:44:24.661Z,15.20
2018-05-15T05:46:52.215Z,15.20
2018-05-15T05:49:19.774Z,15.20
2018-05-15T05:51:47.358Z,15.30
2018-05-15T05:54:14.919Z,15.40
2018-05-15T05:56:42.501Z,15.50
2018-05-15T05:59:10.071Z,15.60
2018-05-15T06:01:37.654Z,15.60
2018-05-15T06:04:05.216Z,15.70
2018-05-15T06:06:32.799Z,15.80
2018-05-15T06:09:00.357Z,15.90
2018-05-15T06:11:27.933Z,15.90
2018-05-15T06:13:56.273Z,16.00
2018-05-15T06:16:23.861Z,16.00
2018-05-15T06:18:51.433Z,16.10
2018-05-15T06:21:19.017Z,16.10
2018-05-15T06:23:46.577Z,16.20
2018-05-15T06:26:14.159Z,16.30
2018-05-15T06:28:41.716Z,16.30
2018-05-15T06:31:09.293Z,16.30
2018-05-15T06:33:37.622Z,16.40
2018-05-15T06:36:05.204Z,16.40
2018-05-15T06:38:32.801Z,16.50
2018-05-15T06:41:00.374Z,16.60
2018-05-15T06:43:27.933Z,16.60
2018-05-15T06:45:55.520Z,16.60
2018-05-15T06:48:23.085Z,16.70
2018-05-15T06:50:50.677Z,16.70
2018-05-15T06:53:18.243Z,16.70
2018-05-15T06:55:46.602Z,17.00
2018-05-15T06:58:14.160Z,16.90
2018-05-15T07:00:41.742Z,17.10
2018-05-15T07:03:09.301Z,17.20
2018-05-15T07:05:37.630Z,17.40
2018-05-15T07:08:05.214Z,17.40
2018-05-15T07:10:32.770Z,17.40
2018-05-15T07:13:00.350Z,17.50
2018-05-15T07:15:27.909Z,17.50
2018-05-15T07:17:55.497Z,17.50
2018-05-15T07:20:24.019Z,17.40
2018-05-15T07:22:51.613Z,17.50
2018-05-15T07:25:19.169Z,17.50
2018-05-15T07:27:46.807Z,17.50
2018-05-15T07:30:14.371Z,17.60
2018-05-15T07:32:41.963Z,17.70
2018-05-15T07:35:09.525Z,17.80
2018-05-15T07:37:37.106Z,17.70
2018-05-15T07:40:05.438Z,17.80
2018-05-15T07:42:33.792Z,17.90
2018-05-15T07:45:01.909Z,17.90
2018-05-15T07:47:29.758Z,18.10
2018-05-15T07:49:57.333Z,18.20
2018-05-15T07:52:24.949Z,18.30
2018-05-15T07:54:52.501Z,18.30
2018-05-15T07:57:20.089Z,18.10
2018-05-15T07:59:47.645Z,18.30
2018-05-15T08:02:15.225Z,18.40
2018-05-15T08:04:42.782Z,18.80
2018-05-15T08:07:10.369Z,19.10
2018-05-15T08:09:38.700Z,19.60
2018-05-15T08:12:06.277Z,19.60
2018-05-15T08:14:33.874Z,19.30
2018-05-15T08:17:01.463Z,19.40
2018-05-15T08:19:29.020Z,19.80
2018-05-15T08:21:56.597Z,20.10
2018-05-15T08:24:24.154Z,20.20
2018-05-15T08:26:51.737Z,20.30
2018-05-15T08:29:19.305Z,20.30
2018-05-15T08:31:46.895Z,20.20
2018-05-15T08:34:14.459Z,20.30
2018-05-15T08:36:42.054Z,20.30
2018-05-15T08:39:09.617Z,20.40
2018-05-15T08:41:37.172Z,20.60
2018-05-15T08:44:04.762Z,20.60
2018-05-15T08:46:32.325Z,20.80
2018-05-15T08:49:01.650Z,21.40
2018-05-15T08:51:29.224Z,21.30
2018-05-15T08:53:56.993Z,21.70
2018-05-15T08:56:24.756Z,22.20
2018-05-15T08:58:52.333Z,22.40
2018-05-15T09:01:19.897Z,22.60
2018-05-15T09:03:47.481Z,22.90
2018-05-15T09:06:15.072Z,23.10
2018-05-15T09:08:42.652Z,23.30
2018-05-15T09:11:10.341Z,23.50
2018-05-15T09:13:37.925Z,23.70
2018-05-15T09:16:05.482Z,23.80
2018-05-15T09:18:33.065Z,23.60
2018-05-15T09:21:00.627Z,23.70
2018-05-15T09:23:28.205Z,23.90
2018-05-15T09:25:55.931Z,24.00
2018-05-15T09:28:23.514Z,23.70
2018-05-15T09:30:51.114Z,23.90
2018-05-15T09:33:18.698Z,24.00
2018-05-15T09:35:46.257Z,23.80
2018-05-15T09:38:13.832Z,23.70
2018-05-15T09:40:41.396Z,23.50
2018-05-15T09:43:09.745Z,23.40
2018-05-15T09:45:37.347Z,23.30
2018-05-15T09:48:04.929Z,23.30
2018-05-15T09:50:32.486Z,23.60
2018-05-15T09:53:00.066Z,24.10
2018-05-15T09:55:28.386Z,25.30
2018-05-15T09:57:56.734Z,25.90
2018-05-15T10:00:29.988Z,25.90
2018-05-15T10:02:57.568Z,26.00
2018-05-15T10:05:25.128Z,26.20
2018-05-15T10:07:52.803Z,26.40
2018-05-15T10:10:20.284Z,26.50
2018-05-15T10:12:47.869Z,26.10
2018-05-15T10:15:15.430Z,25.90
2018-05-15T10:17:43.013Z,26.20
2018-05-15T10:20:10.570Z,26.10
2018-05-15T10:22:38.135Z,25.80
2018-05-15T10:25:06.478Z,26.00
2018-05-15T10:27:34.034Z,26.00
2018-05-15T10:30:01.697Z,26.00
2018-05-15T10:32:30.016Z,25.30
2018-05-15T10:34:57.604Z,25.30
2018-05-15T10:37:25.165Z,25.30
2018-05-15T10:39:53.509Z,25.30
2018-05-15T10:42:21.061Z,25.30
2018-05-15T10:44:48.645Z,25.00
2018-05-15T10:47:16.207Z,25.20
2018-05-15T10:49:43.789Z,24.50
2018-05-15T10:52:12.115Z,24.60
2018-05-15T10:54:39.703Z,24.60
2018-05-15T10:57:07.858Z,24.50
2018-05-15T10:59:35.565Z,24.50
2018-05-15T11:02:03.078Z,24.60
2018-05-15T11:04:30.656Z,24.60
2018-05-15T11:06:58.214Z,24.50
2018-05-15T11:09:25.795Z,24.60
2018-05-15T11:11:54.117Z,24.30
2018-05-15T11:14:21.694Z,24.20
2018-05-15T11:16:49.285Z,24.00
2018-05-15T11:19:28.697Z,24.20
2018-05-15T11:22:08.016Z,24.20
2018-05-15T11:24:50.478Z,24.20
2018-05-15T11:27:18.809Z,23.60
2018-05-15T11:29:46.389Z,23.30
2018-05-15T11:32:13.950Z,23.30
2018-05-15T11:34:41.532Z,23.40
2018-05-15T11:37:09.089Z,23.40
2018-05-15T11:39:37.449Z,23.40
2018-05-15T11:42:05.013Z,23.40
2018-05-15T11:44:32.594Z,23.50
2018-05-15T11:47:00.153Z,22.50
2018-05-15T11:49:28.369Z,22.80
2018-05-15T11:51:56.158Z,22.80
2018-05-15T11:54:22.909Z,23.20
2018-05-15T11:56:50.459Z,23.10
2018-05-15T11:59:18.810Z,23.10
2018-05-15T12:01:46.373Z,23.00
2018-05-15T12:04:13.955Z,22.80
2018-05-15T12:06:41.517Z,23.00
2018-05-15T12:09:09.969Z,22.90
2018-05-15T12:11:38.226Z,22.90
2018-05-15T12:14:05.781Z,22.90
2018-05-15T12:16:33.362Z,22.80
2018-05-15T12:19:00.913Z,22.50
2018-05-15T12:21:28.489Z,22.60
2018-05-15T12:23:56.043Z,22.60
2018-05-15T12:26:23.620Z,22.70
2018-05-15T12:28:51.178Z,22.80
2018-05-15T12:31:18.760Z,22.70
2018-05-15T12:33:46.326Z,22.90
2018-05-15T12:36:13.905Z,22.90
2018-05-15T12:38:41.451Z,22.90
2018-05-15T12:41:09.080Z,22.90
2018-05-15T12:43:36.607Z,22.90
2018-05-15T12:46:04.203Z,23.00
2018-05-15T12:48:32.556Z,23.10
2018-05-15T12:51:00.121Z,23.10
2018-05-15T12:53:27.678Z,22.80
2018-05-15T12:55:55.255Z,22.60
2018-05-15T12:58:23.574Z,22.50
2018-05-15T13:00:51.154Z,22.50
2018-05-15T13:03:18.718Z,22.40
2018-05-15T13:05:46.302Z,22.10
2018-05-15T13:08:13.861Z,22.30
2018-05-15T13:10:41.443Z,22.30
2018-05-15T13:13:08.997Z,22.40
2018-05-15T13:15:37.347Z,22.50
2018-05-15T13:18:04.904Z,22.50
2018-05-15T13:20:32.485Z,22.60
2018-05-15T13:23:00.042Z,22.60
2018-05-15T13:25:28.398Z,22.80
2018-05-15T13:27:55.954Z,22.70
2018-05-15T13:30:23.516Z,22.90
2018-05-15T13:32:51.098Z,22.80
2018-05-15T13:35:19.509Z,22.60
2018-05-15T13:37:47.021Z,22.60
2018-05-15T13:40:14.581Z,22.50
2018-05-15T13:42:42.172Z,22.60
2018-05-15T13:45:09.726Z,22.60
2018-05-15T13:47:37.305Z,22.70
2018-05-15T13:50:04.866Z,22.80
2018-05-15T13:52:32.443Z,22.90
2018-05-15T13:54:59.994Z,22.90
2018-05-15T13:57:27.571Z,22.80
2018-05-15T13:59:55.130Z,22.90
2018-05-15T14:02:22.711Z,22.80
2018-05-15T14:04:50.271Z,22.80
2018-05-15T14:07:17.849Z,22.90
2018-05-15T14:09:45.407Z,23.00
2018-05-15T14:12:13.753Z,22.70
2018-05-15T14:14:41.306Z,22.70
2018-05-15T14:17:08.881Z,22.80
2018-05-15T14:19:36.441Z,22.80
2018-05-15T14:22:04.789Z,22.80
2018-05-15T14:24:32.349Z,22.80
2018-05-15T14:26:59.935Z,23.00
2018-05-15T14:29:27.522Z,23.00
2018-05-15T14:31:55.099Z,23.20
2018-05-15T14:34:22.655Z,23.10
2018-05-15T14:36:50.233Z,23.20
2018-05-15T14:39:17.798Z,23.30
2018-05-15T14:41:57.208Z,23.20
2018-05-15T14:44:24.762Z,23.30
2018-05-15T14:46:52.349Z,23.10
2018-05-15T14:49:19.906Z,23.10
2018-05-15T14:51:47.492Z,23.10
2018-05-15T14:54:15.041Z,23.20
2018-05-15T14:56:42.591Z,23.20
2018-05-15T14:59:10.173Z,23.20
2018-05-15T15:01:37.728Z,23.30
2018-05-15T15:04:05.321Z,23.30
2018-05-15T15:06:32.890Z,23.30
2018-05-15T15:09:00.465Z,23.30
2018-05-15T15:11:28.025Z,23.30
2018-05-15T15:13:55.604Z,23.00
2018-05-15T15:16:23.160Z,22.90
2018-05-15T15:18:51.505Z,23.00
2018-05-15T15:21:19.072Z,22.90
2018-05-15T15:23:46.677Z,23.00
2018-05-15T15:26:14.233Z,22.90
2018-05-15T15:28:41.805Z,22.90
2018-05-15T15:31:09.358Z,22.80
2018-05-15T15:33:36.963Z,22.80
2018-05-15T15:36:04.518Z,22.80
2018-05-15T15:38:32.108Z,22.80
2018-05-15T15:40:59.671Z,22.80
2018-05-15T15:43:27.254Z,22.70
2018-05-15T15:45:54.815Z,22.80
2018-05-15T15:48:22.394Z,22.70
2018-05-15T15:50:51.506Z,22.70
2018-05-15T15:53:19.183Z,22.70
2018-05-15T15:55:46.783Z,22.70
2018-05-15T15:58:14.331Z,22.70
2018-05-15T16:00:41.878Z,22.70
2018-05-15T16:03:09.449Z,22.60
2018-05-15T16:05:37.769Z,22.40
2018-05-15T16:08:05.352Z,22.40
2018-05-15T16:10:32.924Z,22.40
2018-05-15T16:13:00.505Z,22.10
2018-05-15T16:15:28.062Z,21.90
2018-05-15T16:17:55.652Z,21.90
2018-05-15T16:20:23.205Z,22.00
2018-05-15T16:22:50.808Z,21.90
2018-05-15T16:25:19.116Z,21.60
2018-05-15T16:27:46.670Z,21.50
2018-05-15T16:30:14.252Z,21.40
2018-05-15T16:32:41.807Z,21.30
2018-05-15T16:35:09.388Z,21.30
2018-05-15T16:37:37.801Z,21.20
2018-05-15T16:40:05.308Z,21.20
2018-05-15T16:42:32.862Z,21.10
2018-05-15T16:45:00.438Z,21.10
2018-05-15T16:47:28.849Z,20.70
2018-05-15T16:49:56.362Z,20.60
2018-05-15T16:52:23.922Z,20.70
2018-05-15T16:54:51.507Z,20.70
2018-05-15T16:57:19.074Z,20.60
2018-05-15T16:59:46.652Z,20.60
2018-05-15T17:02:14.208Z,20.60
2018-05-15T17:04:41.789Z,20.50
2018-05-15T17:07:09.338Z,20.40
2018-05-15T17:09:36.926Z,20.20
2018-05-15T17:12:05.194Z,20.30
2018-05-15T17:14:32.881Z,20.30
2018-05-15T17:17:01.210Z,20.40
2018-05-15T17:19:28.837Z,20.40
2018-05-15T17:21:56.393Z,20.30
2018-05-15T17:24:23.971Z,20.30
2018-05-15T17:26:51.526Z,20.30
2018-05-15T17:29:19.118Z,20.30
2018-05-15T17:31:46.669Z,20.30
2018-05-15T17:34:14.257Z,20.10
2018-05-15T17:36:41.906Z,20.10
2018-05-15T17:39:09.485Z,20.10
2018-05-15T17:41:37.045Z,20.00
2018-05-15T17:44:05.488Z,19.90
2018-05-15T17:46:33.046Z,19.80
2018-05-15T17:49:00.626Z,19.80
2018-05-15T17:51:28.179Z,19.80
2018-05-15T17:53:55.754Z,19.80
2018-05-15T17:56:23.338Z,19.60
2018-05-15T17:58:52.458Z,19.60
2018-05-15T18:01:20.043Z,19.60
2018-05-15T18:03:47.641Z,19.50
2018-05-15T18:06:15.222Z,19.10
2018-05-15T18:08:42.787Z,18.90
2018-05-15T18:11:10.387Z,18.80
2018-05-15T18:13:38.030Z,18.60
2018-05-15T18:16:06.195Z,18.70
2018-05-15T18:18:33.878Z,18.60
2018-05-15T18:21:02.250Z,18.20
2018-05-15T18:23:29.827Z,18.20
2018-05-15T18:25:57.586Z,18.30
2018-05-15T18:28:25.142Z,18.20
2018-05-15T18:30:54.345Z,18.00
2018-05-15T18:33:21.898Z,17.90
2018-05-15T18:35:49.480Z,18.00
2018-05-15T18:38:17.801Z,17.80
2018-05-15T18:40:45.377Z,17.80
2018-05-15T18:43:12.926Z,17.90
2018-05-15T18:45:40.503Z,18.00
2018-05-15T18:48:08.057Z,17.80
2018-05-15T18:50:35.644Z,17.90
2018-05-15T18:53:03.202Z,17.70
2018-05-15T18:55:30.787Z,17.60
2018-05-15T18:57:58.350Z,17.60
2018-05-15T19:00:25.936Z,17.60
2018-05-15T19:02:53.497Z,17.60
2018-05-15T19:05:21.074Z,17.70
2018-05-15T19:07:48.672Z,17.60
2018-05-15T19:10:16.258Z,17.50
2018-05-15T19:12:43.879Z,17.50
2018-05-15T19:15:11.413Z,17.60
2018-05-15T19:17:38.961Z,17.60
2018-05-15T19:20:06.537Z,17.50
2018-05-15T19:22:34.089Z,17.60
2018-05-15T19:25:01.669Z,17.50
2018-05-15T19:27:29.246Z,17.50
2018-05-15T19:29:56.829Z,17.40
2018-05-15T19:32:29.946Z,17.30
2018-05-15T19:34:58.310Z,17.20
2018-05-15T19:37:25.868Z,17.20
2018-05-15T19:39:53.428Z,17.20
2018-05-15T19:42:20.998Z,17.10
2018-05-15T19:44:49.326Z,17.00
2018-05-15T19:47:16.916Z,17.00
2018-05-15T19:49:44.461Z,16.90
2018-05-15T19:52:12.045Z,16.90
2018-05-15T19:54:39.727Z,16.70
2018-05-15T19:57:07.309Z,16.80
2018-05-15T19:59:34.893Z,16.60
2018-05-15T20:02:03.232Z,16.60
2018-05-15T20:04:30.787Z,16.60
2018-05-15T20:06:58.369Z,16.60
2018-05-15T20:09:25.931Z,16.40
2018-05-15T20:11:54.273Z,16.20
2018-05-15T20:14:21.856Z,16.20
2018-05-15T20:16:49.425Z,16.10
2018-05-15T20:19:16.980Z,16.30
2018-05-15T20:21:45.329Z,16.00
2018-05-15T20:24:12.880Z,16.00
2018-05-15T20:26:40.464Z,15.90
2018-05-15T20:29:08.026Z,15.70
2018-05-15T20:31:36.383Z,15.60
2018-05-15T20:34:03.950Z,15.60
2018-05-15T20:36:31.680Z,15.60
2018-05-15T20:38:59.245Z,15.60
2018-05-15T20:41:26.813Z,15.60
2018-05-15T20:43:54.378Z,15.50
2018-05-15T20:46:21.997Z,15.50
2018-05-15T20:48:49.554Z,15.30
2018-05-15T20:51:17.129Z,15.20
2018-05-15T20:53:44.688Z,15.30
2018-05-15T20:56:12.267Z,15.10
2018-05-15T20:58:39.815Z,15.10
2018-05-15T21:01:07.369Z,15.20
2018-05-15T21:03:34.945Z,15.00
2018-05-15T21:06:02.544Z,14.90
2018-05-15T21:08:30.891Z,15.10
2018-05-15T21:10:59.213Z,14.90
2018-05-15T21:13:26.785Z,14.90
2018-05-15T21:15:54.345Z,14.90
2018-05-15T21:18:22.125Z,14.80
2018-05-15T21:20:49.688Z,14.60
2018-05-15T21:23:17.273Z,14.50
2018-05-15T21:25:44.825Z,14.40
2018-05-15T21:28:12.412Z,14.60
2018-05-15T21:30:39.970Z,14.60
2018-05-15T21:33:07.550Z,14.70
2018-05-15T21:35:35.105Z,14.70
2018-05-15T21:38:02.696Z,14.80
2018-05-15T21:40:30.249Z,14.90
2018-05-15T21:42:57.829Z,14.80
2018-05-15T21:45:25.381Z,14.70
2018-05-15T21:47:52.954Z,14.70
2018-05-15T21:50:20.514Z,14.80
2018-05-15T21:52:48.199Z,14.60
2018-05-15T21:55:15.665Z,14.70
2018-05-15T21:57:44.017Z,14.70
2018-05-15T22:00:11.569Z,14.70
2018-05-15T22:02:39.141Z,14.70
2018-05-15T22:05:06.692Z,14.70
2018-05-15T22:07:34.270Z,14.60
2018-05-15T22:10:01.840Z,14.50
2018-05-15T22:12:41.415Z,14.40
2018-05-15T22:15:20.597Z,14.40
2018-05-15T22:17:59.864Z,14.40
2018-05-15T22:20:39.186Z,14.40
2018-05-15T22:23:06.241Z,14.30
2018-05-15T22:25:33.797Z,14.30
2018-05-15T22:28:02.145Z,14.30
2018-05-15T22:30:29.702Z,14.30
2018-05-15T22:32:57.282Z,14.30
2018-05-15T22:35:24.835Z,14.20
2018-05-15T22:37:53.190Z,14.20
2018-05-15T22:40:20.784Z,14.20
2018-05-15T22:42:48.376Z,14.30
2018-05-15T22:45:15.949Z,14.30
2018-05-15T22:47:43.501Z,14.20
2018-05-15T22:50:11.076Z,14.20
2018-05-15T22:52:38.638Z,14.20
2018-05-15T22:55:06.253Z,14.20
2018-05-15T22:57:33.804Z,14.30
2018-05-15T23:00:01.377Z,14.30
2018-05-15T23:02:28.945Z,14.40
2018-05-15T23:04:56.517Z,14.30
2018-05-15T23:07:24.081Z,14.10
2018-05-15T23:09:51.664Z,14.10
2018-05-15T23:12:19.327Z,14.20
2018-05-15T23:14:46.901Z,14.30
2018-05-15T23:17:15.214Z,14.40
2018-05-15T23:19:42.789Z,14.30
2018-05-15T23:22:10.346Z,14.30
2018-05-15T23:24:37.926Z,14.40
2018-05-15T23:27:05.485Z,14.40
2018-05-15T23:29:33.114Z,14.40
2018-05-15T23:32:00.653Z,14.40
2018-05-15T23:34:28.233Z,14.30
2018-05-15T23:36:55.788Z,14.10
2018-05-15T23:39:23.361Z,14.00
2018-05-15T23:41:50.985Z,14.10
2018-05-15T23:44:18.562Z,14.10
2018-05-15T23:46:46.111Z,14.10
2018-05-15T23:49:13.688Z,14.10
2018-05-15T23:51:41.250Z,14.10
2018-05-15T23:54:08.842Z,14.20
2018-05-15T23:56:36.419Z,14.20
2018-05-15T23:59:04.770Z,14.10
